createdAt,value
2018-04-21T00:00:33.790Z,1015.39
2018-04-21T00:01:33.777Z,1015.38
2018-04-21T00:02:33.761Z,1015.42
2018-04-21T00:03:33.753Z,1015.43
2018-04-21T00:04:33.739Z,1015.42
2018-04-21T00:05:33.730Z,1015.43
2018-04-21T00:06:33.730Z,1015.44
2018-04-21T00:07:33.700Z,1015.46
2018-04-21T00:08:33.684Z,1015.39
2018-04-21T00:09:33.676Z,1015.42
2018-04-21T00:10:33.657Z,1015.39
2018-04-21T00:11:33.642Z,1015.39
2018-04-21T00:12:33.629Z,1015.38
2018-04-21T00:13:33.614Z,1015.37
2018-04-21T00:14:33.603Z,1015.41
2018-04-21T00:15:33.588Z,1015.36
2018-04-21T00:16:33.574Z,1015.37
2018-04-21T00:17:33.563Z,1015.37
2018-04-21T00:18:33.549Z,1015.37
2018-04-21T00:19:33.542Z,1015.36
2018-04-21T00:20:33.520Z,1015.37
2018-04-21T00:21:33.514Z,1015.38
2018-04-21T00:22:33.494Z,1015.34
2018-04-21T00:23:33.483Z,1015.34
2018-04-21T00:24:33.463Z,1015.34
2018-04-21T00:25:33.462Z,1015.33
2018-04-21T00:26:33.437Z,1015.34
2018-04-21T00:27:33.423Z,1015.34
2018-04-21T00:28:33.417Z,1015.37
2018-04-21T00:29:33.398Z,1015.36
2018-04-21T00:30:33.394Z,1015.32
2018-04-21T00:31:33.372Z,1015.35
2018-04-21T00:32:33.365Z,1015.38
2018-04-21T00:33:33.347Z,1015.38
2018-04-21T00:34:33.329Z,1015.40
2018-04-21T00:35:33.326Z,1015.39
2018-04-21T00:36:33.303Z,1015.39
2018-04-21T00:37:33.291Z,1015.36
2018-04-21T00:38:33.282Z,1015.34
2018-04-21T00:39:33.260Z,1015.31
2018-04-21T00:40:33.250Z,1015.30
2018-04-21T00:41:33.238Z,1015.29
2018-04-21T00:42:33.224Z,1015.31
2018-04-21T00:43:33.214Z,1015.29
2018-04-21T00:44:33.191Z,1015.28
2018-04-21T00:45:33.185Z,1015.28
2018-04-21T00:46:33.176Z,1015.26
2018-04-21T00:47:33.160Z,1015.26
2018-04-21T00:48:33.143Z,1015.26
2018-04-21T00:49:33.130Z,1015.26
2018-04-21T00:50:33.114Z,1015.24
2018-04-21T00:51:33.110Z,1015.26
2018-04-21T00:52:33.091Z,1015.27
2018-04-21T00:53:33.073Z,1015.25
2018-04-21T00:54:33.072Z,1015.24
2018-04-21T00:55:33.044Z,1015.26
2018-04-21T00:56:33.031Z,1015.28
2018-04-21T00:57:33.021Z,1015.29
2018-04-21T00:58:33.005Z,1015.30
2018-04-21T00:59:32.991Z,1015.32
2018-04-21T01:00:32.977Z,1015.28
2018-04-21T01:01:32.960Z,1015.31
2018-04-21T01:02:32.948Z,1015.31
2018-04-21T01:03:32.939Z,1015.30
2018-04-21T01:04:32.921Z,1015.31
2018-04-21T01:05:32.914Z,1015.30
2018-04-21T01:06:32.894Z,1015.29
2018-04-21T01:07:32.878Z,1015.31
2018-04-21T01:08:32.864Z,1015.32
2018-04-21T01:09:32.855Z,1015.33
2018-04-21T01:10:32.851Z,1015.30
2018-04-21T01:11:32.823Z,1015.32
2018-04-21T01:12:32.811Z,1015.32
2018-04-21T01:13:32.794Z,1015.32
2018-04-21T01:14:32.784Z,1015.28
2018-04-21T01:15:32.777Z,1015.27
2018-04-21T01:16:32.755Z,1015.28
2018-04-21T01:17:32.746Z,1015.26
2018-04-21T01:18:32.736Z,1015.28
2018-04-21T01:19:32.714Z,1015.28
2018-04-21T01:20:32.701Z,1015.26
2018-04-21T01:21:32.688Z,1015.26
2018-04-21T01:22:32.679Z,1015.28
2018-04-21T01:23:32.653Z,1015.26
2018-04-21T01:24:32.644Z,1015.27
2018-04-21T01:25:32.629Z,1015.31
2018-04-21T01:26:32.614Z,1015.27
2018-04-21T01:27:32.600Z,1015.29
2018-04-21T01:28:32.588Z,1015.29
2018-04-21T01:29:32.576Z,1015.30
2018-04-21T01:30:32.559Z,1015.31
2018-04-21T01:31:32.551Z,1015.31
2018-04-21T01:32:32.530Z,1015.30
2018-04-21T01:33:32.519Z,1015.28
2018-04-21T01:34:32.505Z,1015.30
2018-04-21T01:35:32.487Z,1015.30
2018-04-21T01:36:32.472Z,1015.29
2018-04-21T01:37:32.464Z,1015.29
2018-04-21T01:38:32.450Z,1015.29
2018-04-21T01:39:32.438Z,1015.29
2018-04-21T01:40:32.418Z,1015.29
2018-04-21T01:41:32.408Z,1015.29
2018-04-21T01:42:32.394Z,1015.30
2018-04-21T01:43:32.373Z,1015.29
2018-04-21T01:44:32.361Z,1015.27
2018-04-21T01:45:32.348Z,1015.28
2018-04-21T01:46:32.333Z,1015.28
2018-04-21T01:47:32.323Z,1015.26
2018-04-21T01:48:32.304Z,1015.24
2018-04-21T01:49:32.292Z,1015.22
2018-04-21T01:50:32.274Z,1015.21
2018-04-21T01:51:32.261Z,1015.19
2018-04-21T01:52:32.252Z,1015.18
2018-04-21T01:53:32.233Z,1015.17
2018-04-21T01:54:32.221Z,1015.19
2018-04-21T01:55:32.204Z,1015.20
2018-04-21T01:56:32.194Z,1015.20
2018-04-21T01:57:32.178Z,1015.23
2018-04-21T01:58:32.165Z,1015.24
2018-04-21T01:59:32.152Z,1015.21
2018-04-21T02:00:32.139Z,1015.24
2018-04-21T02:01:32.124Z,1015.23
2018-04-21T02:02:32.110Z,1015.26
2018-04-21T02:03:32.095Z,1015.24
2018-04-21T02:04:32.079Z,1015.26
2018-04-21T02:05:32.063Z,1015.23
2018-04-21T02:06:32.058Z,1015.27
2018-04-21T02:07:32.042Z,1015.24
2018-04-21T02:08:32.027Z,1015.24
2018-04-21T02:09:32.013Z,1015.25
2018-04-21T02:10:31.993Z,1015.22
2018-04-21T02:11:31.978Z,1015.24
2018-04-21T02:12:31.965Z,1015.18
2018-04-21T02:13:31.952Z,1015.22
2018-04-21T02:14:31.934Z,1015.27
2018-04-21T02:15:31.925Z,1015.27
2018-04-21T02:16:31.906Z,1015.28
2018-04-21T02:17:31.890Z,1015.28
2018-04-21T02:18:31.878Z,1015.25
2018-04-21T02:19:31.865Z,1015.28
2018-04-21T02:20:31.852Z,1015.25
2018-04-21T02:21:31.835Z,1015.30
2018-04-21T02:22:31.821Z,1015.27
2018-04-21T02:23:31.804Z,1015.26
2018-04-21T02:24:31.796Z,1015.27
2018-04-21T02:25:31.781Z,1015.26
2018-04-21T02:26:31.763Z,1015.28
2018-04-21T02:27:31.754Z,1015.26
2018-04-21T02:28:31.736Z,1015.27
2018-04-21T02:29:31.723Z,1015.29
2018-04-21T02:30:31.710Z,1015.26
2018-04-21T02:31:31.692Z,1015.29
2018-04-21T02:32:31.678Z,1015.25
2018-04-21T02:33:31.667Z,1015.22
2018-04-21T02:34:31.651Z,1015.24
2018-04-21T02:35:31.633Z,1015.23
2018-04-21T02:36:31.632Z,1015.19
2018-04-21T02:37:31.610Z,1015.20
2018-04-21T02:38:31.600Z,1015.17
2018-04-21T02:39:31.577Z,1015.18
2018-04-21T02:40:31.564Z,1015.14
2018-04-21T02:41:31.551Z,1015.18
2018-04-21T02:42:31.532Z,1015.14
2018-04-21T02:43:31.522Z,1015.15
2018-04-21T02:44:31.509Z,1015.15
2018-04-21T02:45:31.492Z,1015.10
2018-04-21T02:46:31.482Z,1015.11
2018-04-21T02:47:31.463Z,1015.12
2018-04-21T02:48:31.449Z,1015.11
2018-04-21T02:49:31.432Z,1015.14
2018-04-21T02:50:31.417Z,1015.12
2018-04-21T02:51:31.404Z,1015.13
2018-04-21T02:52:31.387Z,1015.15
2018-04-21T02:53:31.377Z,1015.14
2018-04-21T02:54:31.361Z,1015.16
2018-04-21T02:55:31.344Z,1015.17
2018-04-21T02:56:31.331Z,1015.14
2018-04-21T02:57:31.317Z,1015.19
2018-04-21T02:58:31.301Z,1015.16
2018-04-21T02:59:31.288Z,1015.15
2018-04-21T03:00:31.271Z,1015.12
2018-04-21T03:01:31.257Z,1015.15
2018-04-21T03:02:31.245Z,1015.15
2018-04-21T03:03:31.228Z,1015.15
2018-04-21T03:04:31.213Z,1015.14
2018-04-21T03:05:31.201Z,1015.15
2018-04-21T03:06:31.191Z,1015.12
2018-04-21T03:07:31.170Z,1015.14
2018-04-21T03:08:31.158Z,1015.17
2018-04-21T03:09:31.141Z,1015.16
2018-04-21T03:10:31.131Z,1015.14
2018-04-21T03:11:31.111Z,1015.15
2018-04-21T03:12:31.099Z,1015.15
2018-04-21T03:13:31.087Z,1015.15
2018-04-21T03:14:31.071Z,1015.14
2018-04-21T03:15:31.056Z,1015.15
2018-04-21T03:16:31.040Z,1015.13
2018-04-21T03:17:31.031Z,1015.11
2018-04-21T03:18:31.011Z,1015.12
2018-04-21T03:19:31.002Z,1015.10
2018-04-21T03:20:30.981Z,1015.11
2018-04-21T03:21:30.977Z,1015.08
2018-04-21T03:22:30.951Z,1015.08
2018-04-21T03:23:30.937Z,1015.11
2018-04-21T03:24:30.934Z,1015.14
2018-04-21T03:25:30.910Z,1015.13
2018-04-21T03:26:30.898Z,1015.14
2018-04-21T03:27:30.889Z,1015.12
2018-04-21T03:28:30.871Z,1015.06
2018-04-21T03:29:30.863Z,1015.08
2018-04-21T03:30:30.842Z,1015.08
2018-04-21T03:31:30.825Z,1015.08
2018-04-21T03:32:30.807Z,1015.10
2018-04-21T03:33:30.796Z,1015.09
2018-04-21T03:34:30.778Z,1015.09
2018-04-21T03:35:30.765Z,1015.12
2018-04-21T03:36:30.751Z,1015.11
2018-04-21T03:37:30.744Z,1015.06
2018-04-21T03:38:30.721Z,1015.08
2018-04-21T03:39:30.707Z,1015.06
2018-04-21T03:40:30.691Z,1015.05
2018-04-21T03:41:30.676Z,1015.10
2018-04-21T03:42:30.662Z,1015.11
2018-04-21T03:43:30.646Z,1015.10
2018-04-21T03:44:30.634Z,1015.11
2018-04-21T03:45:30.621Z,1015.10
2018-04-21T03:46:30.607Z,1015.08
2018-04-21T03:47:30.591Z,1015.09
2018-04-21T03:48:30.575Z,1015.09
2018-04-21T03:49:30.561Z,1015.07
2018-04-21T03:50:30.552Z,1015.07
2018-04-21T03:51:30.531Z,1015.10
2018-04-21T03:52:30.516Z,1015.11
2018-04-21T03:53:30.505Z,1015.09
2018-04-21T03:54:30.487Z,1015.04
2018-04-21T03:55:30.471Z,1015.06
2018-04-21T03:56:30.459Z,1015.11
2018-04-21T03:57:30.445Z,1015.09
2018-04-21T03:58:30.434Z,1015.05
2018-04-21T03:59:30.416Z,1015.11
2018-04-21T04:00:30.399Z,1015.06
2018-04-21T04:01:30.387Z,1015.10
2018-04-21T04:02:30.374Z,1015.07
2018-04-21T04:03:30.355Z,1015.08
2018-04-21T04:04:30.337Z,1015.09
2018-04-21T04:05:30.332Z,1015.08
2018-04-21T04:06:30.308Z,1015.09
2018-04-21T04:07:30.290Z,1015.10
2018-04-21T04:08:30.285Z,1015.12
2018-04-21T04:09:30.273Z,1015.11
2018-04-21T04:10:30.251Z,1015.18
2018-04-21T04:11:30.230Z,1015.23
2018-04-21T04:12:30.225Z,1015.28
2018-04-21T04:13:30.211Z,1015.31
2018-04-21T04:14:30.193Z,1015.33
2018-04-21T04:15:30.174Z,1015.36
2018-04-21T04:16:30.158Z,1015.38
2018-04-21T04:17:30.143Z,1015.45
2018-04-21T04:18:30.129Z,1015.45
2018-04-21T04:19:30.112Z,1015.47
2018-04-21T04:20:30.097Z,1015.42
2018-04-21T04:21:30.085Z,1015.45
2018-04-21T04:22:30.071Z,1015.44
2018-04-21T04:23:30.056Z,1015.43
2018-04-21T04:24:30.040Z,1015.45
2018-04-21T04:25:30.021Z,1015.46
2018-04-21T04:26:30.013Z,1015.49
2018-04-21T04:27:29.990Z,1015.51
2018-04-21T04:28:29.980Z,1015.51
2018-04-21T04:29:29.962Z,1015.51
2018-04-21T04:30:29.953Z,1015.53
2018-04-21T04:31:29.931Z,1015.53
2018-04-21T04:32:29.916Z,1015.57
2018-04-21T04:33:29.900Z,1015.54
2018-04-21T04:34:29.890Z,1015.57
2018-04-21T04:35:29.867Z,1015.54
2018-04-21T04:36:29.855Z,1015.54
2018-04-21T04:37:29.844Z,1015.59
2018-04-21T04:38:29.829Z,1015.60
2018-04-21T04:39:29.811Z,1015.64
2018-04-21T04:40:29.791Z,1015.70
2018-04-21T04:41:29.781Z,1015.66
2018-04-21T04:42:29.761Z,1015.63
2018-04-21T04:43:29.758Z,1015.63
2018-04-21T04:44:29.733Z,1015.67
2018-04-21T04:45:29.717Z,1015.63
2018-04-21T04:46:29.702Z,1015.68
2018-04-21T04:47:29.688Z,1015.66
2018-04-21T04:48:29.671Z,1015.61
2018-04-21T04:49:29.655Z,1015.65
2018-04-21T04:50:29.639Z,1015.64
2018-04-21T04:51:29.621Z,1015.66
2018-04-21T04:52:29.608Z,1015.67
2018-04-21T04:53:29.591Z,1015.67
2018-04-21T04:54:29.582Z,1015.70
2018-04-21T04:55:29.561Z,1015.65
2018-04-21T04:56:29.546Z,1015.67
2018-04-21T04:57:29.532Z,1015.72
2018-04-21T04:58:29.512Z,1015.72
2018-04-21T04:59:29.498Z,1015.71
2018-04-21T05:00:29.485Z,1015.74
2018-04-21T05:01:29.473Z,1015.76
2018-04-21T05:02:29.452Z,1015.80
2018-04-21T05:03:29.436Z,1015.77
2018-04-21T05:04:29.419Z,1015.78
2018-04-21T05:05:29.404Z,1015.74
2018-04-21T05:06:29.391Z,1015.76
2018-04-21T05:07:29.371Z,1015.73
2018-04-21T05:08:29.362Z,1015.77
2018-04-21T05:09:29.341Z,1015.77
2018-04-21T05:10:29.325Z,1015.78
2018-04-21T05:11:29.310Z,1015.80
2018-04-21T05:12:29.292Z,1015.81
2018-04-21T05:13:29.277Z,1015.84
2018-04-21T05:14:29.261Z,1015.82
2018-04-21T05:15:29.245Z,1015.82
2018-04-21T05:16:29.230Z,1015.84
2018-04-21T05:17:29.217Z,1015.84
2018-04-21T05:18:29.198Z,1015.81
2018-04-21T05:19:29.184Z,1015.88
2018-04-21T05:20:29.165Z,1015.89
2018-04-21T05:21:29.153Z,1015.89
2018-04-21T05:22:29.135Z,1015.91
2018-04-21T05:23:29.124Z,1015.92
2018-04-21T05:24:29.103Z,1015.98
2018-04-21T05:25:29.094Z,1015.94
2018-04-21T05:26:29.072Z,1015.94
2018-04-21T05:27:29.059Z,1015.98
2018-04-21T05:28:29.043Z,1015.96
2018-04-21T05:29:29.028Z,1015.98
2018-04-21T05:30:29.011Z,1016.00
2018-04-21T05:31:28.993Z,1016.01
2018-04-21T05:32:28.980Z,1016.00
2018-04-21T05:33:28.964Z,1016.03
2018-04-21T05:34:28.948Z,1016.02
2018-04-21T05:35:28.932Z,1016.05
2018-04-21T05:36:28.913Z,1016.07
2018-04-21T05:37:28.906Z,1016.09
2018-04-21T05:38:28.883Z,1016.09
2018-04-21T05:39:28.873Z,1016.10
2018-04-21T05:40:28.856Z,1016.09
2018-04-21T05:41:28.838Z,1016.14
2018-04-21T05:42:28.831Z,1016.13
2018-04-21T05:43:28.813Z,1016.15
2018-04-21T05:44:28.795Z,1016.14
2018-04-21T05:45:28.783Z,1016.16
2018-04-21T05:46:28.759Z,1016.18
2018-04-21T05:47:28.752Z,1016.17
2018-04-21T05:48:28.723Z,1016.19
2018-04-21T05:49:28.712Z,1016.23
2018-04-21T05:50:28.691Z,1016.22
2018-04-21T05:51:28.685Z,1016.20
2018-04-21T05:52:28.662Z,1016.21
2018-04-21T05:53:28.652Z,1016.19
2018-04-21T05:54:28.632Z,1016.26
2018-04-21T05:55:28.616Z,1016.21
2018-04-21T05:56:28.601Z,1016.27
2018-04-21T05:57:28.581Z,1016.24
2018-04-21T05:58:28.572Z,1016.23
2018-04-21T05:59:28.552Z,1016.26
2018-04-21T06:00:28.538Z,1016.26
2018-04-21T06:01:28.519Z,1016.26
2018-04-21T06:02:28.502Z,1016.29
2018-04-21T06:03:28.492Z,1016.31
2018-04-21T06:04:28.479Z,1016.29
2018-04-21T06:05:28.458Z,1016.29
2018-04-21T06:06:28.445Z,1016.26
2018-04-21T06:07:28.439Z,1016.30
2018-04-21T06:08:28.414Z,1016.34
2018-04-21T06:09:28.394Z,1016.32
2018-04-21T06:10:28.378Z,1016.34
2018-04-21T06:11:28.364Z,1016.40
2018-04-21T06:12:28.350Z,1016.41
2018-04-21T06:13:28.333Z,1016.39
2018-04-21T06:14:28.313Z,1016.41
2018-04-21T06:15:28.315Z,1016.40
2018-04-21T06:16:28.283Z,1016.43
2018-04-21T06:17:28.271Z,1016.44
2018-04-21T06:18:28.253Z,1016.40
2018-04-21T06:19:28.241Z,1016.42
2018-04-21T06:20:28.222Z,1016.40
2018-04-21T06:21:28.208Z,1016.45
2018-04-21T06:22:28.189Z,1016.45
2018-04-21T06:23:28.192Z,1016.41
2018-04-21T06:24:28.161Z,1016.44
2018-04-21T06:25:28.144Z,1016.40
2018-04-21T06:26:28.129Z,1016.43
2018-04-21T06:27:28.115Z,1016.39
2018-04-21T06:28:28.093Z,1016.41
2018-04-21T06:29:28.082Z,1016.41
2018-04-21T06:30:28.069Z,1016.42
2018-04-21T06:31:28.049Z,1016.39
2018-04-21T06:32:28.035Z,1016.40
2018-04-21T06:33:28.020Z,1016.41
2018-04-21T06:34:28.009Z,1016.39
2018-04-21T06:35:27.989Z,1016.39
2018-04-21T06:36:27.975Z,1016.38
2018-04-21T06:37:27.957Z,1016.34
2018-04-21T06:38:27.933Z,1016.40
2018-04-21T06:39:27.923Z,1016.38
2018-04-21T06:40:27.905Z,1016.37
2018-04-21T06:41:27.896Z,1016.41
2018-04-21T06:42:27.873Z,1016.43
2018-04-21T06:43:27.860Z,1016.44
2018-04-21T06:44:27.843Z,1016.44
2018-04-21T06:45:27.830Z,1016.44
2018-04-21T06:46:27.817Z,1016.48
2018-04-21T06:47:27.792Z,1016.50
2018-04-21T06:48:27.784Z,1016.52
2018-04-21T06:49:27.780Z,1016.56
2018-04-21T06:50:27.752Z,1016.52
2018-04-21T06:51:27.734Z,1016.53
2018-04-21T06:52:27.721Z,1016.54
2018-04-21T06:53:27.707Z,1016.53
2018-04-21T06:54:27.688Z,1016.55
2018-04-21T06:55:27.669Z,1016.54
2018-04-21T06:56:27.712Z,1016.59
2018-04-21T06:57:27.644Z,1016.59
2018-04-21T06:58:27.627Z,1016.58
2018-04-21T06:59:27.606Z,1016.58
2018-04-21T07:00:27.591Z,1016.63
2018-04-21T07:01:27.576Z,1016.56
2018-04-21T07:02:27.562Z,1016.57
2018-04-21T07:03:27.544Z,1016.58
2018-04-21T07:04:27.532Z,1016.56
2018-04-21T07:05:27.515Z,1016.54
2018-04-21T07:06:27.503Z,1016.56
2018-04-21T07:07:27.484Z,1016.55
2018-04-21T07:08:27.469Z,1016.58
2018-04-21T07:09:27.453Z,1016.59
2018-04-21T07:10:27.439Z,1016.62
2018-04-21T07:11:27.420Z,1016.65
2018-04-21T07:12:27.405Z,1016.66
2018-04-21T07:13:27.390Z,1016.62
2018-04-21T07:14:27.375Z,1016.63
2018-04-21T07:15:27.361Z,1016.66
2018-04-21T07:16:27.343Z,1016.61
2018-04-21T07:17:27.325Z,1016.61
2018-04-21T07:18:27.312Z,1016.63
2018-04-21T07:19:27.310Z,1016.61
2018-04-21T07:20:27.280Z,1016.58
2018-04-21T07:21:27.276Z,1016.62
2018-04-21T07:22:27.256Z,1016.65
2018-04-21T07:23:27.231Z,1016.64
2018-04-21T07:24:27.219Z,1016.69
2018-04-21T07:25:27.204Z,1016.66
2018-04-21T07:26:27.188Z,1016.69
2018-04-21T07:27:27.169Z,1016.68
2018-04-21T07:28:27.164Z,1016.67
2018-04-21T07:29:27.143Z,1016.67
2018-04-21T07:30:27.129Z,1016.68
2018-04-21T07:31:27.121Z,1016.74
2018-04-21T07:32:27.093Z,1016.71
2018-04-21T07:33:27.086Z,1016.69
2018-04-21T07:34:27.064Z,1016.70
2018-04-21T07:35:27.044Z,1016.69
2018-04-21T07:36:27.031Z,1016.73
2018-04-21T07:37:27.019Z,1016.70
2018-04-21T07:38:27.006Z,1016.76
2018-04-21T07:39:26.992Z,1016.74
2018-04-21T07:40:26.971Z,1016.74
2018-04-21T07:41:26.999Z,1016.71
2018-04-21T07:42:26.943Z,1016.75
2018-04-21T07:43:26.924Z,1016.75
2018-04-21T07:44:26.909Z,1016.82
2018-04-21T07:45:26.896Z,1016.81
2018-04-21T07:46:26.882Z,1016.82
2018-04-21T07:47:26.869Z,1016.85
2018-04-21T07:48:26.853Z,1016.86
2018-04-21T07:49:26.839Z,1016.92
2018-04-21T07:50:26.828Z,1016.90
2018-04-21T07:51:26.810Z,1016.86
2018-04-21T07:52:26.791Z,1016.88
2018-04-21T07:53:26.778Z,1016.84
2018-04-21T07:54:26.767Z,1016.87
2018-04-21T07:55:26.744Z,1016.88
2018-04-21T07:56:26.732Z,1016.88
2018-04-21T07:57:26.719Z,1016.87
2018-04-21T07:58:26.713Z,1016.88
2018-04-21T07:59:26.685Z,1016.92
2018-04-21T08:00:26.676Z,1016.91
2018-04-21T08:01:26.660Z,1016.90
2018-04-21T08:02:26.642Z,1016.92
2018-04-21T08:03:26.634Z,1016.91
2018-04-21T08:04:26.614Z,1016.92
2018-04-21T08:05:26.596Z,1016.91
2018-04-21T08:06:26.582Z,1016.91
2018-04-21T08:07:26.576Z,1016.93
2018-04-21T08:08:26.555Z,1016.95
2018-04-21T08:09:26.536Z,1016.95
2018-04-21T08:10:26.521Z,1016.94
2018-04-21T08:11:26.509Z,1016.93
2018-04-21T08:12:26.509Z,1016.97
2018-04-21T08:13:26.479Z,1017.03
2018-04-21T08:14:26.464Z,1017.05
2018-04-21T08:15:26.453Z,1017.02
2018-04-21T08:16:26.440Z,1017.07
2018-04-21T08:17:26.428Z,1017.06
2018-04-21T08:18:26.407Z,1017.06
2018-04-21T08:19:26.395Z,1017.08
2018-04-21T08:20:26.395Z,1017.10
2018-04-21T08:21:26.376Z,1017.12
2018-04-21T08:22:26.371Z,1017.14
2018-04-21T08:23:26.334Z,1017.15
2018-04-21T08:24:26.320Z,1017.13
2018-04-21T08:25:26.303Z,1017.14
2018-04-21T08:26:26.294Z,1017.17
2018-04-21T08:27:26.275Z,1017.17
2018-04-21T08:28:26.266Z,1017.16
2018-04-21T08:29:26.251Z,1017.15
2018-04-21T08:30:26.235Z,1017.19
2018-04-21T08:31:26.260Z,1017.20
2018-04-21T08:32:26.205Z,1017.19
2018-04-21T08:33:26.193Z,1017.18
2018-04-21T08:34:26.179Z,1017.17
2018-04-21T08:35:26.162Z,1017.17
2018-04-21T08:36:26.147Z,1017.24
2018-04-21T08:37:26.142Z,1017.20
2018-04-21T08:38:26.122Z,1017.22
2018-04-21T08:39:26.103Z,1017.21
2018-04-21T08:40:26.089Z,1017.18
2018-04-21T08:41:26.079Z,1017.20
2018-04-21T08:42:26.073Z,1017.19
2018-04-21T08:43:26.061Z,1017.22
2018-04-21T08:44:26.032Z,1017.22
2018-04-21T08:45:26.020Z,1017.20
2018-04-21T08:46:26.006Z,1017.22
2018-04-21T08:47:25.994Z,1017.21
2018-04-21T08:48:25.989Z,1017.24
2018-04-21T08:49:25.976Z,1017.21
2018-04-21T08:50:25.949Z,1017.23
2018-04-21T08:51:25.934Z,1017.25
2018-04-21T08:52:25.923Z,1017.28
2018-04-21T08:53:25.913Z,1017.24
2018-04-21T08:54:25.904Z,1017.18
2018-04-21T08:55:25.880Z,1017.22
2018-04-21T08:56:25.899Z,1017.25
2018-04-21T08:57:25.867Z,1017.22
2018-04-21T08:58:25.843Z,1017.20
2018-04-21T08:59:25.826Z,1017.16
2018-04-21T09:00:25.814Z,1017.22
2018-04-21T09:01:25.799Z,1017.22
2018-04-21T09:02:25.807Z,1017.23
2018-04-21T09:03:25.775Z,1017.23
2018-04-21T09:04:25.766Z,1017.27
2018-04-21T09:05:25.746Z,1017.27
2018-04-21T09:06:25.731Z,1017.32
2018-04-21T09:07:25.724Z,1017.32
2018-04-21T09:08:25.705Z,1017.32
2018-04-21T09:09:25.693Z,1017.31
2018-04-21T09:10:25.677Z,1017.30
2018-04-21T09:11:25.662Z,1017.30
2018-04-21T09:12:25.655Z,1017.29
2018-04-21T09:13:25.636Z,1017.32
2018-04-21T09:14:25.632Z,1017.27
2018-04-21T09:15:25.607Z,1017.30
2018-04-21T09:16:25.594Z,1017.31
2018-04-21T09:17:25.590Z,1017.30
2018-04-21T09:18:25.572Z,1017.32
2018-04-21T09:19:25.562Z,1017.30
2018-04-21T09:20:25.552Z,1017.29
2018-04-21T09:21:25.563Z,1017.25
2018-04-21T09:22:25.512Z,1017.24
2018-04-21T09:23:25.497Z,1017.29
2018-04-21T09:24:25.484Z,1017.29
2018-04-21T09:25:25.472Z,1017.28
2018-04-21T09:26:25.456Z,1017.29
2018-04-21T09:27:25.443Z,1017.31
2018-04-21T09:28:25.434Z,1017.28
2018-04-21T09:29:25.417Z,1017.28
2018-04-21T09:30:25.403Z,1017.26
2018-04-21T09:31:25.398Z,1017.30
2018-04-21T09:32:25.379Z,1017.28
2018-04-21T09:33:25.363Z,1017.29
2018-04-21T09:34:25.365Z,1017.25
2018-04-21T09:35:25.336Z,1017.27
2018-04-21T09:36:25.321Z,1017.29
2018-04-21T09:37:25.305Z,1017.29
2018-04-21T09:38:25.357Z,1017.25
2018-04-21T09:39:25.286Z,1017.25
2018-04-21T09:40:25.272Z,1017.27
2018-04-21T09:41:25.253Z,1017.30
2018-04-21T09:42:25.245Z,1017.27
2018-04-21T09:43:25.227Z,1017.24
2018-04-21T09:44:25.213Z,1017.26
2018-04-21T09:45:25.202Z,1017.25
2018-04-21T09:46:25.191Z,1017.23
2018-04-21T09:47:25.171Z,1017.19
2018-04-21T09:48:25.158Z,1017.20
2018-04-21T09:49:25.162Z,1017.21
2018-04-21T09:50:25.141Z,1017.21
2018-04-21T09:51:25.121Z,1017.18
2018-04-21T09:52:25.109Z,1017.16
2018-04-21T09:53:25.091Z,1017.20
2018-04-21T09:54:25.083Z,1017.18
2018-04-21T09:55:25.073Z,1017.19
2018-04-21T09:56:25.065Z,1017.19
2018-04-21T09:57:25.040Z,1017.16
2018-04-21T09:58:25.031Z,1017.17
2018-04-21T09:59:25.012Z,1017.16
2018-04-21T10:00:25.003Z,1017.15
2018-04-21T10:01:24.996Z,1017.14
2018-04-21T10:02:24.976Z,1017.12
2018-04-21T10:03:24.970Z,1017.08
2018-04-21T10:04:24.959Z,1017.05
2018-04-21T10:05:24.936Z,1017.06
2018-04-21T10:06:24.920Z,1017.02
2018-04-21T10:07:24.915Z,1017.01
2018-04-21T10:08:24.899Z,1017.05
2018-04-21T10:09:24.884Z,1017.04
2018-04-21T10:10:24.875Z,1016.99
2018-04-21T10:11:24.861Z,1017.04
2018-04-21T10:12:24.844Z,1017.06
2018-04-21T10:13:24.837Z,1017.07
2018-04-21T10:14:24.826Z,1017.06
2018-04-21T10:15:24.804Z,1017.05
2018-04-21T10:16:24.795Z,1017.06
2018-04-21T10:17:24.782Z,1017.01
2018-04-21T10:18:24.767Z,1017.00
2018-04-21T10:19:24.755Z,1016.98
2018-04-21T10:20:24.737Z,1016.96
2018-04-21T10:21:24.728Z,1016.93
2018-04-21T10:22:24.709Z,1016.94
2018-04-21T10:23:24.715Z,1016.99
2018-04-21T10:24:24.686Z,1016.94
2018-04-21T10:25:24.681Z,1016.93
2018-04-21T10:26:24.662Z,1016.93
2018-04-21T10:27:24.656Z,1016.94
2018-04-21T10:28:24.633Z,1016.94
2018-04-21T10:29:24.623Z,1016.92
2018-04-21T10:30:24.607Z,1016.96
2018-04-21T10:31:24.593Z,1016.93
2018-04-21T10:32:24.583Z,1016.91
2018-04-21T10:33:24.575Z,1016.87
2018-04-21T10:34:24.556Z,1016.91
2018-04-21T10:35:24.542Z,1016.87
2018-04-21T10:36:24.531Z,1016.87
2018-04-21T10:37:24.519Z,1016.87
2018-04-21T10:38:24.506Z,1016.78
2018-04-21T10:39:24.500Z,1016.80
2018-04-21T10:40:24.474Z,1016.80
2018-04-21T10:41:24.466Z,1016.82
2018-04-21T10:42:24.454Z,1016.81
2018-04-21T10:43:24.435Z,1016.82
2018-04-21T10:44:24.433Z,1016.81
2018-04-21T10:45:24.411Z,1016.82
2018-04-21T10:46:24.396Z,1016.81
2018-04-21T10:47:24.386Z,1016.84
2018-04-21T10:48:24.375Z,1016.83
2018-04-21T10:49:24.363Z,1016.78
2018-04-21T10:50:24.358Z,1016.78
2018-04-21T10:51:24.334Z,1016.77
2018-04-21T10:52:24.318Z,1016.75
2018-04-21T10:53:24.311Z,1016.72
2018-04-21T10:54:24.293Z,1016.77
2018-04-21T10:55:24.289Z,1016.75
2018-04-21T10:56:24.274Z,1016.75
2018-04-21T10:57:24.255Z,1016.71
2018-04-21T10:58:24.246Z,1016.75
2018-04-21T10:59:24.244Z,1016.77
2018-04-21T11:00:24.217Z,1016.79
2018-04-21T11:01:24.205Z,1016.77
2018-04-21T11:02:24.195Z,1016.76
2018-04-21T11:03:24.183Z,1016.75
2018-04-21T11:04:24.183Z,1016.73
2018-04-21T11:05:24.152Z,1016.69
2018-04-21T11:06:24.146Z,1016.64
2018-04-21T11:07:24.135Z,1016.64
2018-04-21T11:08:24.119Z,1016.63
2018-04-21T11:09:24.108Z,1016.61
2018-04-21T11:10:24.096Z,1016.62
2018-04-21T11:11:24.079Z,1016.59
2018-04-21T11:12:24.064Z,1016.58
2018-04-21T11:13:24.050Z,1016.60
2018-04-21T11:14:24.042Z,1016.66
2018-04-21T11:15:24.032Z,1016.61
2018-04-21T11:16:24.016Z,1016.61
2018-04-21T11:17:24.006Z,1016.61
2018-04-21T11:18:23.988Z,1016.59
2018-04-21T11:19:23.979Z,1016.57
2018-04-21T11:20:23.977Z,1016.52
2018-04-21T11:21:23.949Z,1016.55
2018-04-21T11:22:23.941Z,1016.53
2018-04-21T11:23:23.932Z,1016.53
2018-04-21T11:24:23.915Z,1016.56
2018-04-21T11:25:23.897Z,1016.54
2018-04-21T11:26:23.895Z,1016.54
2018-04-21T11:27:23.873Z,1016.54
2018-04-21T11:28:23.881Z,1016.51
2018-04-21T11:29:23.847Z,1016.51
2018-04-21T11:30:23.843Z,1016.47
2018-04-21T11:31:23.828Z,1016.47
2018-04-21T11:32:23.823Z,1016.45
2018-04-21T11:33:23.801Z,1016.45
2018-04-21T11:34:23.799Z,1016.43
2018-04-21T11:35:23.782Z,1016.39
2018-04-21T11:36:23.770Z,1016.41
2018-04-21T11:37:23.750Z,1016.42
2018-04-21T11:38:23.742Z,1016.41
2018-04-21T11:39:23.729Z,1016.41
2018-04-21T11:40:23.727Z,1016.42
2018-04-21T11:41:23.717Z,1016.43
2018-04-21T11:42:23.692Z,1016.41
2018-04-21T11:43:23.684Z,1016.45
2018-04-21T11:44:23.666Z,1016.48
2018-04-21T11:45:23.655Z,1016.47
2018-04-21T11:46:23.655Z,1016.43
2018-04-21T11:47:23.629Z,1016.42
2018-04-21T11:48:23.615Z,1016.45
2018-04-21T11:49:23.604Z,1016.39
2018-04-21T11:50:23.594Z,1016.37
2018-04-21T11:51:23.582Z,1016.40
2018-04-21T11:52:23.565Z,1016.37
2018-04-21T11:53:23.558Z,1016.34
2018-04-21T11:54:23.549Z,1016.32
2018-04-21T11:55:23.536Z,1016.34
2018-04-21T11:56:23.528Z,1016.35
2018-04-21T11:57:23.509Z,1016.33
2018-04-21T11:58:23.497Z,1016.34
2018-04-21T11:59:23.488Z,1016.31
2018-04-21T12:00:23.477Z,1016.33
2018-04-21T12:01:23.466Z,1016.29
2018-04-21T12:02:23.459Z,1016.32
2018-04-21T12:03:23.435Z,1016.33
2018-04-21T12:04:23.435Z,1016.29
2018-04-21T12:05:23.448Z,1016.26